sensor_id;sensor_type;location;lat;lon;timestamp;temperature;humidity
439;DHT22;206;48.782;9.252;2022-12-18T00:01:58;-5.40;59.20
439;DHT22;206;48.782;9.252;2022-12-18T00:04:26;-5.40;59.30
439;DHT22;206;48.782;9.252;2022-12-18T00:06:52;-5.50;58.30
439;DHT22;206;48.782;9.252;2022-12-18T00:09:18;-5.50;58.50
439;DHT22;206;48.782;9.252;2022-12-18T00:11:44;-5.50;59.00
439;DHT22;206;48.782;9.252;2022-12-18T00:14:12;-5.50;58.60
439;DHT22;206;48.782;9.252;2022-12-18T00:16:38;-5.50;59.50
439;DHT22;206;48.782;9.252;2022-12-18T00:19:06;-5.50;59.90
439;DHT22;206;48.782;9.252;2022-12-18T00:21:33;-5.40;59.20
439;DHT22;206;48.782;9.252;2022-12-18T00:24:00;-5.30;59.00
439;DHT22;206;48.782;9.252;2022-12-18T00:26:31;-5.30;59.10
439;DHT22;206;48.782;9.252;2022-12-18T00:29:02;-5.20;59.20
439;DHT22;206;48.782;9.252;2022-12-18T00:31:27;-5.10;58.20
439;DHT22;206;48.782;9.252;2022-12-18T00:33:55;-5.10;58.30
439;DHT22;206;48.782;9.252;2022-12-18T00:36:23;-5.10;56.90
439;DHT22;206;48.782;9.252;2022-12-18T00:38:49;-5.00;57.00
439;DHT22;206;48.782;9.252;2022-12-18T00:41:16;-5.10;55.70
439;DHT22;206;48.782;9.252;2022-12-18T00:44:02;-5.20;56.30
439;DHT22;206;48.782;9.252;2022-12-18T00:46:28;-5.20;57.00
439;DHT22;206;48.782;9.252;2022-12-18T00:48:53;-5.30;57.80
439;DHT22;206;48.782;9.252;2022-12-18T00:51:19;-5.20;58.20
439;DHT22;206;48.782;9.252;2022-12-18T00:53:44;-5.20;58.40
439;DHT22;206;48.782;9.252;2022-12-18T00:56:10;-5.20;58.40
439;DHT22;206;48.782;9.252;2022-12-18T00:58:35;-5.20;58.80
439;DHT22;206;48.782;9.252;2022-12-18T01:01:02;-5.20;58.30
439;DHT22;206;48.782;9.252;2022-12-18T01:03:28;-5.20;58.70
439;DHT22;206;48.782;9.252;2022-12-18T01:05:54;-5.10;58.60
439;DHT22;206;48.782;9.252;2022-12-18T01:08:19;-5.10;58.60
439;DHT22;206;48.782;9.252;2022-12-18T01:10:45;-5.10;57.90
439;DHT22;206;48.782;9.252;2022-12-18T01:13:10;-5.10;58.20
439;DHT22;206;48.782;9.252;2022-12-18T01:15:36;-5.00;57.50
439;DHT22;206;48.782;9.252;2022-12-18T01:18:04;-5.00;55.90
439;DHT22;206;48.782;9.252;2022-12-18T01:20:30;-4.90;55.90
439;DHT22;206;48.782;9.252;2022-12-18T01:22:55;-5.00;55.80
439;DHT22;206;48.782;9.252;2022-12-18T01:25:21;-5.00;55.60
439;DHT22;206;48.782;9.252;2022-12-18T01:27:47;-5.00;55.90
439;DHT22;206;48.782;9.252;2022-12-18T01:30:12;-5.10;55.20
439;DHT22;206;48.782;9.252;2022-12-18T01:32:38;-5.00;55.80
439;DHT22;206;48.782;9.252;2022-12-18T01:35:04;-4.90;55.90
439;DHT22;206;48.782;9.252;2022-12-18T01:37:30;-4.90;55.00
439;DHT22;206;48.782;9.252;2022-12-18T01:39:56;-4.90;54.50
439;DHT22;206;48.782;9.252;2022-12-18T01:42:21;-4.90;54.00
439;DHT22;206;48.782;9.252;2022-12-18T01:44:58;-4.80;54.60
439;DHT22;206;48.782;9.252;2022-12-18T01:49:56;-4.90;52.90
439;DHT22;206;48.782;9.252;2022-12-18T01:52:22;-4.90;53.50
439;DHT22;206;48.782;9.252;2022-12-18T01:54:50;-4.90;54.50
439;DHT22;206;48.782;9.252;2022-12-18T01:57:17;-4.90;53.70
439;DHT22;206;48.782;9.252;2022-12-18T01:59:45;-4.80;53.30
439;DHT22;206;48.782;9.252;2022-12-18T02:02:13;-4.90;52.70
439;DHT22;206;48.782;9.252;2022-12-18T02:04:42;-4.90;53.00
439;DHT22;206;48.782;9.252;2022-12-18T02:10:01;-4.90;53.00
439;DHT22;206;48.782;9.252;2022-12-18T02:13:04;-5.00;52.30
439;DHT22;206;48.782;9.252;2022-12-18T02:15:39;-5.10;53.90
439;DHT22;206;48.782;9.252;2022-12-18T02:18:11;-5.20;54.00
439;DHT22;206;48.782;9.252;2022-12-18T02:21:26;-5.30;55.00
439;DHT22;206;48.782;9.252;2022-12-18T02:26:45;-5.40;55.50
439;DHT22;206;48.782;9.252;2022-12-18T02:29:16;-5.40;56.20
439;DHT22;206;48.782;9.252;2022-12-18T02:31:47;-5.40;55.50
439;DHT22;206;48.782;9.252;2022-12-18T02:34:14;-5.40;55.60
439;DHT22;206;48.782;9.252;2022-12-18T02:36:42;-5.40;56.00
439;DHT22;206;48.782;9.252;2022-12-18T02:39:11;-5.30;56.10
439;DHT22;206;48.782;9.252;2022-12-18T02:41:38;-5.30;55.60
439;DHT22;206;48.782;9.252;2022-12-18T02:44:08;-5.20;55.60
439;DHT22;206;48.782;9.252;2022-12-18T02:46:43;-5.20;54.00
439;DHT22;206;48.782;9.252;2022-12-18T02:49:35;-5.10;53.20
439;DHT22;206;48.782;9.252;2022-12-18T02:58:17;-5.10;52.30
439;DHT22;206;48.782;9.252;2022-12-18T03:00:53;-5.20;51.90
439;DHT22;206;48.782;9.252;2022-12-18T03:03:35;-5.30;52.10
439;DHT22;206;48.782;9.252;2022-12-18T03:06:21;-5.30;51.60
439;DHT22;206;48.782;9.252;2022-12-18T03:08:52;-5.30;52.50
439;DHT22;206;48.782;9.252;2022-12-18T03:11:19;-5.30;51.90
439;DHT22;206;48.782;9.252;2022-12-18T03:14:06;-5.30;51.60
439;DHT22;206;48.782;9.252;2022-12-18T03:16:34;-5.40;51.90
439;DHT22;206;48.782;9.252;2022-12-18T03:19:14;-5.40;52.40
439;DHT22;206;48.782;9.252;2022-12-18T03:21:45;-5.40;52.70
439;DHT22;206;48.782;9.252;2022-12-18T03:24:11;-5.40;52.70
439;DHT22;206;48.782;9.252;2022-12-18T03:26:52;-5.30;53.30
439;DHT22;206;48.782;9.252;2022-12-18T03:29:40;-5.30;52.80
439;DHT22;206;48.782;9.252;2022-12-18T03:32:12;-5.40;52.00
439;DHT22;206;48.782;9.252;2022-12-18T03:34:41;-5.40;51.80
439;DHT22;206;48.782;9.252;2022-12-18T03:37:07;-5.50;52.00
439;DHT22;206;48.782;9.252;2022-12-18T03:39:34;-5.50;52.30
439;DHT22;206;48.782;9.252;2022-12-18T03:47:22;-5.50;51.50
439;DHT22;206;48.782;9.252;2022-12-18T03:50:00;-5.50;51.80
439;DHT22;206;48.782;9.252;2022-12-18T03:53:05;-5.50;51.30
439;DHT22;206;48.782;9.252;2022-12-18T03:55:23;-5.40;50.50
439;DHT22;206;48.782;9.252;2022-12-18T03:57:51;-5.40;50.40
439;DHT22;206;48.782;9.252;2022-12-18T04:00:18;-5.50;49.80
439;DHT22;206;48.782;9.252;2022-12-18T04:02:51;-5.50;50.60
439;DHT22;206;48.782;9.252;2022-12-18T04:05:17;-5.50;50.40
439;DHT22;206;48.782;9.252;2022-12-18T04:07:45;-5.60;50.80
439;DHT22;206;48.782;9.252;2022-12-18T04:10:12;-5.60;50.80
439;DHT22;206;48.782;9.252;2022-12-18T04:12:38;-5.60;50.80
439;DHT22;206;48.782;9.252;2022-12-18T04:15:05;-5.60;50.80
439;DHT22;206;48.782;9.252;2022-12-18T04:17:31;-5.80;50.40
439;DHT22;206;48.782;9.252;2022-12-18T04:19:56;-5.90;50.50
439;DHT22;206;48.782;9.252;2022-12-18T04:22:22;-5.90;50.10
439;DHT22;206;48.782;9.252;2022-12-18T04:24:48;-6.10;50.40
439;DHT22;206;48.782;9.252;2022-12-18T04:27:13;-6.10;50.80
439;DHT22;206;48.782;9.252;2022-12-18T04:29:39;-6.20;50.80
439;DHT22;206;48.782;9.252;2022-12-18T04:32:05;-6.30;51.10
439;DHT22;206;48.782;9.252;2022-12-18T04:34:30;-6.30;51.10
439;DHT22;206;48.782;9.252;2022-12-18T04:36:56;-6.40;50.70
439;DHT22;206;48.782;9.252;2022-12-18T04:39:22;-6.40;51.30
439;DHT22;206;48.782;9.252;2022-12-18T04:41:47;-6.50;51.60
439;DHT22;206;48.782;9.252;2022-12-18T04:44:13;-6.50;51.80
439;DHT22;206;48.782;9.252;2022-12-18T04:46:39;-6.50;51.50
439;DHT22;206;48.782;9.252;2022-12-18T04:49:04;-6.50;51.60
439;DHT22;206;48.782;9.252;2022-12-18T04:51:30;-6.40;51.70
439;DHT22;206;48.782;9.252;2022-12-18T04:53:55;-6.40;50.90
439;DHT22;206;48.782;9.252;2022-12-18T04:56:22;-6.40;50.60
439;DHT22;206;48.782;9.252;2022-12-18T04:58:47;-6.30;50.00
439;DHT22;206;48.782;9.252;2022-12-18T05:01:15;-6.40;48.90
439;DHT22;206;48.782;9.252;2022-12-18T05:03:42;-6.50;49.40
439;DHT22;206;48.782;9.252;2022-12-18T05:06:07;-6.50;49.50
439;DHT22;206;48.782;9.252;2022-12-18T05:08:33;-6.60;49.60
439;DHT22;206;48.782;9.252;2022-12-18T05:11:05;-6.60;49.90
439;DHT22;206;48.782;9.252;2022-12-18T05:13:31;-6.60;49.70
439;DHT22;206;48.782;9.252;2022-12-18T05:15:57;-6.60;49.60
439;DHT22;206;48.782;9.252;2022-12-18T05:18:23;-6.60;48.60
439;DHT22;206;48.782;9.252;2022-12-18T05:20:53;-6.60;48.40
439;DHT22;206;48.782;9.252;2022-12-18T05:23:20;-6.60;48.40
439;DHT22;206;48.782;9.252;2022-12-18T05:25:53;-6.60;48.10
439;DHT22;206;48.782;9.252;2022-12-18T05:28:20;-6.70;48.20
439;DHT22;206;48.782;9.252;2022-12-18T05:30:53;-6.70;48.60
439;DHT22;206;48.782;9.252;2022-12-18T05:33:19;-6.70;47.80
439;DHT22;206;48.782;9.252;2022-12-18T05:35:50;-6.70;47.40
439;DHT22;206;48.782;9.252;2022-12-18T05:38:16;-6.70;46.60
439;DHT22;206;48.782;9.252;2022-12-18T05:40:42;-6.70;46.60
439;DHT22;206;48.782;9.252;2022-12-18T05:43:09;-6.70;46.60
439;DHT22;206;48.782;9.252;2022-12-18T05:45:37;-6.70;46.10
439;DHT22;206;48.782;9.252;2022-12-18T05:48:03;-6.60;45.90
439;DHT22;206;48.782;9.252;2022-12-18T05:50:29;-6.70;45.30
439;DHT22;206;48.782;9.252;2022-12-18T05:52:55;-6.70;45.30
439;DHT22;206;48.782;9.252;2022-12-18T05:55:20;-6.70;45.40
439;DHT22;206;48.782;9.252;2022-12-18T05:57:46;-6.60;45.50
439;DHT22;206;48.782;9.252;2022-12-18T06:00:12;-6.60;45.40
439;DHT22;206;48.782;9.252;2022-12-18T06:02:38;-6.60;45.30
439;DHT22;206;48.782;9.252;2022-12-18T06:05:04;-6.60;43.40
439;DHT22;206;48.782;9.252;2022-12-18T06:07:30;-6.70;43.20
439;DHT22;206;48.782;9.252;2022-12-18T06:09:55;-6.80;43.90
439;DHT22;206;48.782;9.252;2022-12-18T06:12:21;-6.90;43.90
439;DHT22;206;48.782;9.252;2022-12-18T06:14:47;-7.00;45.00
439;DHT22;206;48.782;9.252;2022-12-18T06:17:12;-7.10;44.90
439;DHT22;206;48.782;9.252;2022-12-18T06:19:38;-7.00;45.70
439;DHT22;206;48.782;9.252;2022-12-18T06:22:03;-7.10;45.40
439;DHT22;206;48.782;9.252;2022-12-18T06:24:29;-7.10;45.70
439;DHT22;206;48.782;9.252;2022-12-18T06:26:55;-7.10;45.80
439;DHT22;206;48.782;9.252;2022-12-18T06:29:21;-7.10;45.60
439;DHT22;206;48.782;9.252;2022-12-18T06:31:46;-7.20;44.80
439;DHT22;206;48.782;9.252;2022-12-18T06:34:12;-7.20;45.00
439;DHT22;206;48.782;9.252;2022-12-18T06:36:37;-7.20;45.90
439;DHT22;206;48.782;9.252;2022-12-18T06:39:03;-7.30;45.20
439;DHT22;206;48.782;9.252;2022-12-18T06:41:29;-7.30;45.30
439;DHT22;206;48.782;9.252;2022-12-18T06:43:54;-7.30;46.20
439;DHT22;206;48.782;9.252;2022-12-18T06:46:20;-7.40;46.60
439;DHT22;206;48.782;9.252;2022-12-18T06:48:50;-7.40;46.70
439;DHT22;206;48.782;9.252;2022-12-18T06:51:17;-7.30;46.10
439;DHT22;206;48.782;9.252;2022-12-18T06:53:43;-7.30;45.90
439;DHT22;206;48.782;9.252;2022-12-18T06:56:08;-7.30;45.30
439;DHT22;206;48.782;9.252;2022-12-18T06:58:34;-7.30;48.40
439;DHT22;206;48.782;9.252;2022-12-18T07:01:01;-7.30;47.50
439;DHT22;206;48.782;9.252;2022-12-18T07:03:27;-7.30;46.00
439;DHT22;206;48.782;9.252;2022-12-18T07:05:53;-7.30;47.10
439;DHT22;206;48.782;9.252;2022-12-18T07:08:18;-7.30;46.30
439;DHT22;206;48.782;9.252;2022-12-18T07:10:44;-7.30;44.80
439;DHT22;206;48.782;9.252;2022-12-18T07:13:10;-7.20;44.80
439;DHT22;206;48.782;9.252;2022-12-18T07:15:35;-7.20;44.80
439;DHT22;206;48.782;9.252;2022-12-18T07:18:01;-7.20;44.40
439;DHT22;206;48.782;9.252;2022-12-18T07:20:27;-7.10;44.50
439;DHT22;206;48.782;9.252;2022-12-18T07:22:52;-7.10;44.50
439;DHT22;206;48.782;9.252;2022-12-18T07:25:18;-7.10;44.70
439;DHT22;206;48.782;9.252;2022-12-18T07:27:43;-7.10;44.60
439;DHT22;206;48.782;9.252;2022-12-18T07:30:09;-7.00;44.50
439;DHT22;206;48.782;9.252;2022-12-18T07:32:35;-7.00;43.60
439;DHT22;206;48.782;9.252;2022-12-18T07:35:01;-7.00;43.60
439;DHT22;206;48.782;9.252;2022-12-18T07:37:26;-6.90;43.40
439;DHT22;206;48.782;9.252;2022-12-18T07:39:52;-6.90;42.80
439;DHT22;206;48.782;9.252;2022-12-18T07:42:18;-6.90;42.60
439;DHT22;206;48.782;9.252;2022-12-18T07:44:59;-6.90;42.70
439;DHT22;206;48.782;9.252;2022-12-18T07:47:25;-6.80;42.50
439;DHT22;206;48.782;9.252;2022-12-18T07:49:51;-6.80;42.20
439;DHT22;206;48.782;9.252;2022-12-18T07:52:17;-6.80;42.20
439;DHT22;206;48.782;9.252;2022-12-18T07:54:42;-6.70;42.20
439;DHT22;206;48.782;9.252;2022-12-18T07:57:08;-6.70;41.90
439;DHT22;206;48.782;9.252;2022-12-18T07:59:34;-6.60;40.90
439;DHT22;206;48.782;9.252;2022-12-18T08:01:59;-6.60;41.10
439;DHT22;206;48.782;9.252;2022-12-18T08:04:25;-6.60;40.70
439;DHT22;206;48.782;9.252;2022-12-18T08:06:51;-6.60;40.70
439;DHT22;206;48.782;9.252;2022-12-18T08:09:17;-6.60;40.70
439;DHT22;206;48.782;9.252;2022-12-18T08:11:43;-6.60;41.00
439;DHT22;206;48.782;9.252;2022-12-18T08:14:09;-6.60;41.60
439;DHT22;206;48.782;9.252;2022-12-18T08:16:35;-6.50;42.00
439;DHT22;206;48.782;9.252;2022-12-18T08:19:01;-6.40;41.60
439;DHT22;206;48.782;9.252;2022-12-18T08:21:29;-6.30;40.90
439;DHT22;206;48.782;9.252;2022-12-18T08:24:00;-6.20;41.00
439;DHT22;206;48.782;9.252;2022-12-18T08:26:28;-6.10;40.40
439;DHT22;206;48.782;9.252;2022-12-18T08:28:56;-6.10;40.10
439;DHT22;206;48.782;9.252;2022-12-18T08:31:22;-6.00;39.30
439;DHT22;206;48.782;9.252;2022-12-18T08:33:49;-6.00;38.00
439;DHT22;206;48.782;9.252;2022-12-18T08:36:16;-6.10;38.10
439;DHT22;206;48.782;9.252;2022-12-18T08:38:41;-6.10;38.70
439;DHT22;206;48.782;9.252;2022-12-18T08:41:10;-5.90;39.20
439;DHT22;206;48.782;9.252;2022-12-18T08:43:36;-5.80;38.60
439;DHT22;206;48.782;9.252;2022-12-18T08:46:21;-5.80;38.60
439;DHT22;206;48.782;9.252;2022-12-18T08:48:50;-5.70;38.00
439;DHT22;206;48.782;9.252;2022-12-18T08:51:16;-5.60;37.60
439;DHT22;206;48.782;9.252;2022-12-18T08:53:43;-5.60;37.00
439;DHT22;206;48.782;9.252;2022-12-18T08:56:10;-5.50;37.30
439;DHT22;206;48.782;9.252;2022-12-18T08:58:36;-5.40;36.90
439;DHT22;206;48.782;9.252;2022-12-18T09:01:03;-5.40;36.90
439;DHT22;206;48.782;9.252;2022-12-18T09:03:28;-5.40;36.90
439;DHT22;206;48.782;9.252;2022-12-18T09:05:54;-5.40;36.90
439;DHT22;206;48.782;9.252;2022-12-18T09:08:20;-5.30;37.30
439;DHT22;206;48.782;9.252;2022-12-18T09:10:47;-5.20;37.70
439;DHT22;206;48.782;9.252;2022-12-18T09:13:13;-5.30;37.00
439;DHT22;206;48.782;9.252;2022-12-18T09:15:44;-5.30;38.20
439;DHT22;206;48.782;9.252;2022-12-18T09:18:14;-5.20;38.50
439;DHT22;206;48.782;9.252;2022-12-18T09:20:40;-5.20;37.90
439;DHT22;206;48.782;9.252;2022-12-18T09:23:07;-5.10;38.50
439;DHT22;206;48.782;9.252;2022-12-18T09:25:33;-5.00;37.30
439;DHT22;206;48.782;9.252;2022-12-18T09:28:11;-5.00;37.40
439;DHT22;206;48.782;9.252;2022-12-18T09:30:41;-4.90;37.30
439;DHT22;206;48.782;9.252;2022-12-18T09:33:07;-4.80;37.40
439;DHT22;206;48.782;9.252;2022-12-18T09:35:36;-4.80;37.40
439;DHT22;206;48.782;9.252;2022-12-18T09:38:05;-4.70;37.30
439;DHT22;206;48.782;9.252;2022-12-18T09:40:41;-4.70;36.70
439;DHT22;206;48.782;9.252;2022-12-18T09:43:15;-4.60;37.50
439;DHT22;206;48.782;9.252;2022-12-18T09:45:44;-4.40;36.60
439;DHT22;206;48.782;9.252;2022-12-18T09:48:32;-4.30;35.70
439;DHT22;206;48.782;9.252;2022-12-18T09:51:10;-4.30;35.40
439;DHT22;206;48.782;9.252;2022-12-18T09:53:38;-4.30;38.50
439;DHT22;206;48.782;9.252;2022-12-18T09:56:10;-4.20;36.40
439;DHT22;206;48.782;9.252;2022-12-18T09:58:44;-4.30;35.60
439;DHT22;206;48.782;9.252;2022-12-18T10:01:13;-4.20;36.40
439;DHT22;206;48.782;9.252;2022-12-18T10:03:39;-4.00;36.60
439;DHT22;206;48.782;9.252;2022-12-18T10:11:47;-3.60;34.90
439;DHT22;206;48.782;9.252;2022-12-18T10:14:42;-3.40;35.00
439;DHT22;206;48.782;9.252;2022-12-18T10:17:49;-3.40;34.80
439;DHT22;206;48.782;9.252;2022-12-18T10:20:40;-3.40;35.60
439;DHT22;206;48.782;9.252;2022-12-18T10:23:44;-3.30;35.90
439;DHT22;206;48.782;9.252;2022-12-18T10:26:14;-3.30;36.50
439;DHT22;206;48.782;9.252;2022-12-18T10:28:41;-3.20;36.60
439;DHT22;206;48.782;9.252;2022-12-18T10:31:21;-3.10;36.40
439;DHT22;206;48.782;9.252;2022-12-18T10:33:47;-3.10;36.20
439;DHT22;206;48.782;9.252;2022-12-18T10:36:13;-3.00;36.60
439;DHT22;206;48.782;9.252;2022-12-18T10:38:39;-3.10;36.70
439;DHT22;206;48.782;9.252;2022-12-18T10:44:10;-3.00;38.00
439;DHT22;206;48.782;9.252;2022-12-18T10:46:36;-2.90;38.00
439;DHT22;206;48.782;9.252;2022-12-18T10:49:02;-2.90;38.90
439;DHT22;206;48.782;9.252;2022-12-18T10:51:33;-2.90;39.20
439;DHT22;206;48.782;9.252;2022-12-18T10:54:05;-2.90;39.20
439;DHT22;206;48.782;9.252;2022-12-18T10:56:36;-2.70;39.60
439;DHT22;206;48.782;9.252;2022-12-18T10:59:11;-2.50;39.70
439;DHT22;206;48.782;9.252;2022-12-18T11:04:26;-2.00;39.70
439;DHT22;206;48.782;9.252;2022-12-18T11:06:59;-1.70;38.00
439;DHT22;206;48.782;9.252;2022-12-18T11:11:53;-1.40;34.80
439;DHT22;206;48.782;9.252;2022-12-18T11:17:35;-1.10;34.10
439;DHT22;206;48.782;9.252;2022-12-18T11:23:02;-0.90;33.40
439;DHT22;206;48.782;9.252;2022-12-18T11:25:29;-0.90;33.60
439;DHT22;206;48.782;9.252;2022-12-18T11:28:01;-0.70;33.10
439;DHT22;206;48.782;9.252;2022-12-18T11:30:31;-0.80;32.50
439;DHT22;206;48.782;9.252;2022-12-18T11:33:14;-0.70;33.00
439;DHT22;206;48.782;9.252;2022-12-18T11:35:49;-0.60;32.90
439;DHT22;206;48.782;9.252;2022-12-18T11:38:35;-0.60;32.40
439;DHT22;206;48.782;9.252;2022-12-18T11:43:53;-0.50;33.10
439;DHT22;206;48.782;9.252;2022-12-18T11:46:37;-0.40;32.80
439;DHT22;206;48.782;9.252;2022-12-18T11:49:09;-0.30;32.70
439;DHT22;206;48.782;9.252;2022-12-18T11:51:53;-0.30;32.30
439;DHT22;206;48.782;9.252;2022-12-18T11:54:20;-0.20;31.40
439;DHT22;206;48.782;9.252;2022-12-18T11:57:00;-0.20;31.50
439;DHT22;206;48.782;9.252;2022-12-18T12:02:04;-0.10;31.60
439;DHT22;206;48.782;9.252;2022-12-18T12:07:45;0.10;32.10
439;DHT22;206;48.782;9.252;2022-12-18T12:10:30;0.20;31.80
439;DHT22;206;48.782;9.252;2022-12-18T12:15:30;0.10;31.70
439;DHT22;206;48.782;9.252;2022-12-18T12:18:32;0.10;32.00
439;DHT22;206;48.782;9.252;2022-12-18T12:29:04;0.00;33.30
439;DHT22;206;48.782;9.252;2022-12-18T12:31:34;0.10;33.20
439;DHT22;206;48.782;9.252;2022-12-18T12:34:18;0.10;33.40
439;DHT22;206;48.782;9.252;2022-12-18T12:39:31;0.30;33.80
439;DHT22;206;48.782;9.252;2022-12-18T12:41:58;0.50;33.80
439;DHT22;206;48.782;9.252;2022-12-18T12:44:46;0.50;33.30
439;DHT22;206;48.782;9.252;2022-12-18T12:47:32;0.60;33.20
439;DHT22;206;48.782;9.252;2022-12-18T12:50:00;0.70;33.10
439;DHT22;206;48.782;9.252;2022-12-18T12:52:42;0.70;33.00
439;DHT22;206;48.782;9.252;2022-12-18T12:55:18;0.80;32.80
439;DHT22;206;48.782;9.252;2022-12-18T13:07:10;0.50;34.20
439;DHT22;206;48.782;9.252;2022-12-18T13:09:09;0.40;34.00
439;DHT22;206;48.782;9.252;2022-12-18T13:11:43;0.40;34.80
439;DHT22;206;48.782;9.252;2022-12-18T13:14:32;0.50;34.70
439;DHT22;206;48.782;9.252;2022-12-18T13:19:40;0.20;35.70
439;DHT22;206;48.782;9.252;2022-12-18T13:22:21;0.30;35.80
439;DHT22;206;48.782;9.252;2022-12-18T13:24:47;0.30;36.10
439;DHT22;206;48.782;9.252;2022-12-18T13:38:23;0.60;37.00
439;DHT22;206;48.782;9.252;2022-12-18T13:43:28;0.70;36.70
439;DHT22;206;48.782;9.252;2022-12-18T13:48:31;0.70;36.20
439;DHT22;206;48.782;9.252;2022-12-18T13:50:58;0.70;36.90
439;DHT22;206;48.782;9.252;2022-12-18T13:53:29;0.70;36.10
439;DHT22;206;48.782;9.252;2022-12-18T13:55:56;0.70;35.70
439;DHT22;206;48.782;9.252;2022-12-18T13:58:22;0.60;36.10
439;DHT22;206;48.782;9.252;2022-12-18T14:00:47;0.60;36.60
439;DHT22;206;48.782;9.252;2022-12-18T14:03:22;0.60;36.10
439;DHT22;206;48.782;9.252;2022-12-18T14:05:56;0.60;36.00
439;DHT22;206;48.782;9.252;2022-12-18T14:08:25;0.70;36.30
439;DHT22;206;48.782;9.252;2022-12-18T14:10:52;0.70;36.30
439;DHT22;206;48.782;9.252;2022-12-18T14:13:40;0.70;36.40
439;DHT22;206;48.782;9.252;2022-12-18T14:16:07;0.80;36.10
439;DHT22;206;48.782;9.252;2022-12-18T14:18:54;0.80;36.20
439;DHT22;206;48.782;9.252;2022-12-18T14:21:38;0.80;36.20
439;DHT22;206;48.782;9.252;2022-12-18T14:26:31;0.70;37.00
439;DHT22;206;48.782;9.252;2022-12-18T14:29:21;0.70;37.00
439;DHT22;206;48.782;9.252;2022-12-18T14:31:45;0.70;37.00
439;DHT22;206;48.782;9.252;2022-12-18T14:34:17;0.60;37.40
439;DHT22;206;48.782;9.252;2022-12-18T14:36:52;0.50;37.50
439;DHT22;206;48.782;9.252;2022-12-18T14:39:18;0.50;37.70
439;DHT22;206;48.782;9.252;2022-12-18T14:41:44;0.40;39.00
439;DHT22;206;48.782;9.252;2022-12-18T14:44:12;0.40;38.70
439;DHT22;206;48.782;9.252;2022-12-18T14:46:48;0.40;39.30
439;DHT22;206;48.782;9.252;2022-12-18T14:49:26;0.30;40.00
439;DHT22;206;48.782;9.252;2022-12-18T14:52:05;0.20;40.90
439;DHT22;206;48.782;9.252;2022-12-18T14:54:33;0.10;41.40
439;DHT22;206;48.782;9.252;2022-12-18T14:57:04;0.10;41.60
439;DHT22;206;48.782;9.252;2022-12-18T14:59:31;0.00;41.90
439;DHT22;206;48.782;9.252;2022-12-18T15:02:25;0.00;42.50
439;DHT22;206;48.782;9.252;2022-12-18T15:07:45;-0.10;43.40
439;DHT22;206;48.782;9.252;2022-12-18T15:18:19;-0.30;45.30
439;DHT22;206;48.782;9.252;2022-12-18T15:20:50;-0.40;45.80
439;DHT22;206;48.782;9.252;2022-12-18T15:25:46;-0.30;45.90
439;DHT22;206;48.782;9.252;2022-12-18T15:28:29;-0.40;45.80
439;DHT22;206;48.782;9.252;2022-12-18T15:36:15;-0.60;47.20
439;DHT22;206;48.782;9.252;2022-12-18T15:38:49;-0.60;47.60
439;DHT22;206;48.782;9.252;2022-12-18T15:41:19;-0.70;47.70
439;DHT22;206;48.782;9.252;2022-12-18T15:43:46;-0.70;48.10
439;DHT22;206;48.782;9.252;2022-12-18T15:46:14;-0.80;48.20
439;DHT22;206;48.782;9.252;2022-12-18T15:48:42;-0.80;48.80
439;DHT22;206;48.782;9.252;2022-12-18T15:51:33;-0.80;49.20
439;DHT22;206;48.782;9.252;2022-12-18T15:54:02;-0.90;49.60
439;DHT22;206;48.782;9.252;2022-12-18T15:56:31;-0.90;50.10
439;DHT22;206;48.782;9.252;2022-12-18T15:59:18;-0.90;50.00
439;DHT22;206;48.782;9.252;2022-12-18T16:01:47;-0.90;49.90
439;DHT22;206;48.782;9.252;2022-12-18T16:04:14;-0.90;49.60
439;DHT22;206;48.782;9.252;2022-12-18T16:06:41;-0.90;49.90
439;DHT22;206;48.782;9.252;2022-12-18T16:09:07;-1.00;49.90
439;DHT22;206;48.782;9.252;2022-12-18T16:11:35;-1.00;49.90
439;DHT22;206;48.782;9.252;2022-12-18T16:14:26;-1.10;49.90
439;DHT22;206;48.782;9.252;2022-12-18T16:16:55;-1.10;50.10
439;DHT22;206;48.782;9.252;2022-12-18T16:19:21;-1.20;50.10
439;DHT22;206;48.782;9.252;2022-12-18T16:21:48;-1.20;50.70
439;DHT22;206;48.782;9.252;2022-12-18T16:24:22;-1.20;50.90
439;DHT22;206;48.782;9.252;2022-12-18T16:26:49;-1.20;51.10
439;DHT22;206;48.782;9.252;2022-12-18T16:29:17;-1.20;51.20
439;DHT22;206;48.782;9.252;2022-12-18T16:31:42;-1.20;51.30
439;DHT22;206;48.782;9.252;2022-12-18T16:36:50;-1.30;52.00
439;DHT22;206;48.782;9.252;2022-12-18T16:39:16;-1.30;52.00
439;DHT22;206;48.782;9.252;2022-12-18T16:41:42;-1.30;52.00
439;DHT22;206;48.782;9.252;2022-12-18T16:44:08;-1.20;52.00
439;DHT22;206;48.782;9.252;2022-12-18T16:46:33;-1.30;51.80
439;DHT22;206;48.782;9.252;2022-12-18T16:48:59;-1.20;51.60
439;DHT22;206;48.782;9.252;2022-12-18T16:51:28;-1.20;51.50
439;DHT22;206;48.782;9.252;2022-12-18T16:53:55;-1.20;51.50
439;DHT22;206;48.782;9.252;2022-12-18T16:56:23;-1.10;51.00
439;DHT22;206;48.782;9.252;2022-12-18T16:58:51;-1.10;50.40
439;DHT22;206;48.782;9.252;2022-12-18T17:01:17;-1.10;50.10
439;DHT22;206;48.782;9.252;2022-12-18T17:03:42;-1.00;49.90
439;DHT22;206;48.782;9.252;2022-12-18T17:06:08;-1.00;49.90
439;DHT22;206;48.782;9.252;2022-12-18T17:08:34;-1.00;49.90
439;DHT22;206;48.782;9.252;2022-12-18T17:11:04;-0.90;50.10
439;DHT22;206;48.782;9.252;2022-12-18T17:13:30;-0.90;49.50
439;DHT22;206;48.782;9.252;2022-12-18T17:16:04;-1.00;49.40
439;DHT22;206;48.782;9.252;2022-12-18T17:18:31;-1.00;49.70
439;DHT22;206;48.782;9.252;2022-12-18T17:21:04;-0.90;48.70
439;DHT22;206;48.782;9.252;2022-12-18T17:23:30;-0.90;49.10
439;DHT22;206;48.782;9.252;2022-12-18T17:25:56;-0.90;49.00
439;DHT22;206;48.782;9.252;2022-12-18T17:28:23;-0.90;48.90
439;DHT22;206;48.782;9.252;2022-12-18T17:30:51;-0.80;48.90
439;DHT22;206;48.782;9.252;2022-12-18T17:33:17;-0.80;48.60
439;DHT22;206;48.782;9.252;2022-12-18T17:35:43;-0.90;48.50
439;DHT22;206;48.782;9.252;2022-12-18T17:38:09;-0.80;48.30
439;DHT22;206;48.782;9.252;2022-12-18T17:40:35;-0.80;48.20
439;DHT22;206;48.782;9.252;2022-12-18T17:43:00;-0.80;48.20
439;DHT22;206;48.782;9.252;2022-12-18T17:45:26;-0.70;47.80
439;DHT22;206;48.782;9.252;2022-12-18T17:47:52;-0.80;47.60
439;DHT22;206;48.782;9.252;2022-12-18T17:50:18;-0.70;47.80
439;DHT22;206;48.782;9.252;2022-12-18T17:52:44;-0.70;47.50
439;DHT22;206;48.782;9.252;2022-12-18T17:55:10;-0.70;47.40
439;DHT22;206;48.782;9.252;2022-12-18T17:57:35;-0.70;47.30
439;DHT22;206;48.782;9.252;2022-12-18T18:00:04;-0.70;47.00
439;DHT22;206;48.782;9.252;2022-12-18T18:02:31;-0.70;47.00
439;DHT22;206;48.782;9.252;2022-12-18T18:04:56;-0.70;46.40
439;DHT22;206;48.782;9.252;2022-12-18T18:07:22;-0.60;46.50
439;DHT22;206;48.782;9.252;2022-12-18T18:09:47;-0.60;47.00
439;DHT22;206;48.782;9.252;2022-12-18T18:12:13;-0.60;45.60
439;DHT22;206;48.782;9.252;2022-12-18T18:14:57;-0.60;46.30
439;DHT22;206;48.782;9.252;2022-12-18T18:17:23;-0.50;46.60
439;DHT22;206;48.782;9.252;2022-12-18T18:19:48;-0.50;46.20
439;DHT22;206;48.782;9.252;2022-12-18T18:22:17;-0.40;45.80
439;DHT22;206;48.782;9.252;2022-12-18T18:24:44;-0.40;45.10
439;DHT22;206;48.782;9.252;2022-12-18T18:27:11;-0.40;45.00
439;DHT22;206;48.782;9.252;2022-12-18T18:29:36;-0.40;44.80
439;DHT22;206;48.782;9.252;2022-12-18T18:32:02;-0.30;44.90
439;DHT22;206;48.782;9.252;2022-12-18T18:34:30;-0.30;44.70
439;DHT22;206;48.782;9.252;2022-12-18T18:37:00;-0.40;43.80
439;DHT22;206;48.782;9.252;2022-12-18T18:39:26;-0.40;44.00
439;DHT22;206;48.782;9.252;2022-12-18T18:41:52;-0.40;43.80
439;DHT22;206;48.782;9.252;2022-12-18T18:44:19;-0.40;44.00
439;DHT22;206;48.782;9.252;2022-12-18T18:46:45;-0.40;44.10